Appleton, Washington
Current Conditions -  °F | °C
As of 10:53 AM on Saturday 20 Dec 2014 (Local Time) from KDLS Reporting Station
Overcast Overcast  
Wind Chill: 43°   Ceiling: 800
Heat Index: 43°   Visibility: 10mi
Dew Point: 41°   Wind: 3mph
Humidity: 93%   Direction: 350°N
Pressure: 29.78"   Gusts: NA
Location:  45.81°N, 121.27°W
Report Text: KDLS 201853Z AUTO 35003KT 10SM OVC008 06/05 A2978 RMK AO2 RAB15E53 SLP085 P0002 T00610050
Loading
Personal Weather Stations






























Interactive Weather Map New forecast layout! Learn more

10-Day Weather Forecast

Advertisements
Track Severe Weather on mobile